sensor_id;sensor_type;location;lat;lon;timestamp;P1;durP1;ratioP1;P2;durP2;ratioP2
20076;SDS011;12348;42.710;23.378;2023-10-08T00:02:59;2.17;;;1.47;;
20076;SDS011;12348;42.710;23.378;2023-10-08T00:05:35;1.90;;;1.70;;
20076;SDS011;12348;42.710;23.378;2023-10-08T00:08:02;5.40;;;1.47;;
20076;SDS011;12348;42.710;23.378;2023-10-08T00:10:35;5.87;;;1.97;;
20076;SDS011;12348;42.710;23.378;2023-10-08T00:13:05;3.23;;;1.50;;
20076;SDS011;12348;42.710;23.378;2023-10-08T00:15:34;2.33;;;1.97;;
20076;SDS011;12348;42.710;23.378;2023-10-08T00:18:03;2.67;;;1.70;;
20076;SDS011;12348;42.710;23.378;2023-10-08T00:20:31;3.43;;;1.87;;
20076;SDS011;12348;42.710;23.378;2023-10-08T00:23:07;5.77;;;2.83;;
20076;SDS011;12348;42.710;23.378;2023-10-08T00:25:36;2.57;;;1.37;;
20076;SDS011;12348;42.710;23.378;2023-10-08T00:28:06;4.13;;;2.03;;
20076;SDS011;12348;42.710;23.378;2023-10-08T00:30:38;3.37;;;2.27;;
20076;SDS011;12348;42.710;23.378;2023-10-08T00:33:06;2.67;;;1.50;;
20076;SDS011;12348;42.710;23.378;2023-10-08T00:35:36;3.23;;;1.87;;
20076;SDS011;12348;42.710;23.378;2023-10-08T00:38:04;2.30;;;1.43;;
20076;SDS011;12348;42.710;23.378;2023-10-08T00:40:43;8.47;;;2.00;;
20076;SDS011;12348;42.710;23.378;2023-10-08T00:43:11;4.10;;;2.00;;
20076;SDS011;12348;42.710;23.378;2023-10-08T00:45:53;5.00;;;3.47;;
20076;SDS011;12348;42.710;23.378;2023-10-08T00:48:20;2.47;;;1.60;;
20076;SDS011;12348;42.710;23.378;2023-10-08T00:50:53;5.37;;;1.83;;
20076;SDS011;12348;42.710;23.378;2023-10-08T00:53:33;1.33;;;1.23;;
20076;SDS011;12348;42.710;23.378;2023-10-08T00:56:05;2.90;;;2.37;;
20076;SDS011;12348;42.710;23.378;2023-10-08T00:58:39;3.17;;;1.57;;
20076;SDS011;12348;42.710;23.378;2023-10-08T01:01:06;6.00;;;2.43;;
20076;SDS011;12348;42.710;23.378;2023-10-08T01:03:35;3.30;;;2.23;;
20076;SDS011;12348;42.710;23.378;2023-10-08T01:06:04;1.77;;;1.50;;
20076;SDS011;12348;42.710;23.378;2023-10-08T01:08:35;3.10;;;2.10;;
20076;SDS011;12348;42.710;23.378;2023-10-08T01:11:19;3.30;;;2.43;;
20076;SDS011;12348;42.710;23.378;2023-10-08T01:14:04;3.40;;;1.63;;
20076;SDS011;12348;42.710;23.378;2023-10-08T01:16:32;4.63;;;2.30;;
20076;SDS011;12348;42.710;23.378;2023-10-08T01:19:00;4.80;;;2.27;;
20076;SDS011;12348;42.710;23.378;2023-10-08T01:21:28;5.07;;;2.77;;
20076;SDS011;12348;42.710;23.378;2023-10-08T01:24:02;2.20;;;2.00;;
20076;SDS011;12348;42.710;23.378;2023-10-08T01:26:31;4.63;;;2.17;;
20076;SDS011;12348;42.710;23.378;2023-10-08T01:28:59;3.57;;;1.73;;
20076;SDS011;12348;42.710;23.378;2023-10-08T01:31:28;3.10;;;2.27;;
20076;SDS011;12348;42.710;23.378;2023-10-08T01:33:56;2.33;;;2.13;;
20076;SDS011;12348;42.710;23.378;2023-10-08T01:36:23;2.70;;;1.90;;
20076;SDS011;12348;42.710;23.378;2023-10-08T01:38:50;3.00;;;1.97;;
20076;SDS011;12348;42.710;23.378;2023-10-08T01:41:21;5.83;;;2.57;;
20076;SDS011;12348;42.710;23.378;2023-10-08T01:43:55;3.63;;;2.03;;
20076;SDS011;12348;42.710;23.378;2023-10-08T01:46:22;2.43;;;1.97;;
20076;SDS011;12348;42.710;23.378;2023-10-08T01:48:51;6.07;;;2.00;;
20076;SDS011;12348;42.710;23.378;2023-10-08T01:51:25;5.40;;;1.80;;
20076;SDS011;12348;42.710;23.378;2023-10-08T01:54:02;4.10;;;2.40;;
20076;SDS011;12348;42.710;23.378;2023-10-08T01:56:36;4.33;;;2.67;;
20076;SDS011;12348;42.710;23.378;2023-10-08T01:59:06;2.97;;;2.53;;
20076;SDS011;12348;42.710;23.378;2023-10-08T02:01:34;2.63;;;1.70;;
20076;SDS011;12348;42.710;23.378;2023-10-08T02:04:01;3.30;;;1.77;;
20076;SDS011;12348;42.710;23.378;2023-10-08T02:06:28;3.60;;;2.37;;
20076;SDS011;12348;42.710;23.378;2023-10-08T02:08:56;4.60;;;2.23;;
20076;SDS011;12348;42.710;23.378;2023-10-08T02:11:23;3.17;;;2.60;;
20076;SDS011;12348;42.710;23.378;2023-10-08T02:13:53;3.13;;;1.90;;
20076;SDS011;12348;42.710;23.378;2023-10-08T02:16:20;3.43;;;2.27;;
20076;SDS011;12348;42.710;23.378;2023-10-08T02:18:49;6.43;;;2.70;;
20076;SDS011;12348;42.710;23.378;2023-10-08T02:21:16;3.00;;;1.80;;
20076;SDS011;12348;42.710;23.378;2023-10-08T02:23:43;3.03;;;2.33;;
20076;SDS011;12348;42.710;23.378;2023-10-08T02:26:09;4.87;;;2.43;;
20076;SDS011;12348;42.710;23.378;2023-10-08T02:28:36;3.00;;;2.00;;
20076;SDS011;12348;42.710;23.378;2023-10-08T02:31:05;3.87;;;2.90;;
20076;SDS011;12348;42.710;23.378;2023-10-08T02:33:33;3.43;;;1.93;;
20076;SDS011;12348;42.710;23.378;2023-10-08T02:36:02;4.53;;;2.63;;
20076;SDS011;12348;42.710;23.378;2023-10-08T02:38:29;6.50;;;2.60;;
20076;SDS011;12348;42.710;23.378;2023-10-08T02:41:02;5.10;;;2.00;;
20076;SDS011;12348;42.710;23.378;2023-10-08T02:43:31;2.70;;;2.43;;
20076;SDS011;12348;42.710;23.378;2023-10-08T02:45:59;2.50;;;2.30;;
20076;SDS011;12348;42.710;23.378;2023-10-08T02:48:27;3.37;;;2.57;;
20076;SDS011;12348;42.710;23.378;2023-10-08T02:50:54;4.47;;;2.20;;
20076;SDS011;12348;42.710;23.378;2023-10-08T02:53:32;3.70;;;2.13;;
20076;SDS011;12348;42.710;23.378;2023-10-08T02:55:59;7.97;;;2.53;;
20076;SDS011;12348;42.710;23.378;2023-10-08T02:58:25;3.63;;;2.47;;
20076;SDS011;12348;42.710;23.378;2023-10-08T03:00:53;2.80;;;2.20;;
20076;SDS011;12348;42.710;23.378;2023-10-08T03:03:20;2.73;;;2.43;;
20076;SDS011;12348;42.710;23.378;2023-10-08T03:05:52;3.20;;;2.33;;
20076;SDS011;12348;42.710;23.378;2023-10-08T03:08:21;2.47;;;1.87;;
20076;SDS011;12348;42.710;23.378;2023-10-08T03:10:49;3.17;;;2.90;;
20076;SDS011;12348;42.710;23.378;2023-10-08T03:13:20;3.33;;;2.87;;
20076;SDS011;12348;42.710;23.378;2023-10-08T03:15:47;4.57;;;2.93;;
20076;SDS011;12348;42.710;23.378;2023-10-08T03:18:33;3.63;;;2.17;;
20076;SDS011;12348;42.710;23.378;2023-10-08T03:21:06;4.07;;;2.33;;
20076;SDS011;12348;42.710;23.378;2023-10-08T03:23:45;3.87;;;2.67;;
20076;SDS011;12348;42.710;23.378;2023-10-08T03:26:13;4.90;;;2.47;;
20076;SDS011;12348;42.710;23.378;2023-10-08T03:28:58;3.00;;;2.20;;
20076;SDS011;12348;42.710;23.378;2023-10-08T03:31:30;5.00;;;2.80;;
20076;SDS011;12348;42.710;23.378;2023-10-08T03:34:15;2.60;;;1.70;;
20076;SDS011;12348;42.710;23.378;2023-10-08T03:36:47;2.77;;;2.57;;
20076;SDS011;12348;42.710;23.378;2023-10-08T03:39:15;2.30;;;2.10;;
20076;SDS011;12348;42.710;23.378;2023-10-08T03:41:44;2.33;;;2.17;;
20076;SDS011;12348;42.710;23.378;2023-10-08T03:44:24;6.50;;;4.63;;
20076;SDS011;12348;42.710;23.378;2023-10-08T03:46:55;4.57;;;2.57;;
20076;SDS011;12348;42.710;23.378;2023-10-08T03:49:22;2.07;;;1.87;;
20076;SDS011;12348;42.710;23.378;2023-10-08T03:51:55;2.67;;;2.47;;
20076;SDS011;12348;42.710;23.378;2023-10-08T03:54:22;4.37;;;2.63;;
20076;SDS011;12348;42.710;23.378;2023-10-08T03:56:54;4.33;;;1.93;;
20076;SDS011;12348;42.710;23.378;2023-10-08T03:59:22;5.63;;;2.27;;
20076;SDS011;12348;42.710;23.378;2023-10-08T04:01:56;2.10;;;1.90;;
20076;SDS011;12348;42.710;23.378;2023-10-08T04:04:34;2.70;;;1.73;;
20076;SDS011;12348;42.710;23.378;2023-10-08T04:07:16;2.60;;;1.87;;
20076;SDS011;12348;42.710;23.378;2023-10-08T04:10:04;1.30;;;1.20;;
20076;SDS011;12348;42.710;23.378;2023-10-08T04:12:59;3.63;;;1.40;;
20076;SDS011;12348;42.710;23.378;2023-10-08T04:15:26;4.17;;;2.43;;
20076;SDS011;12348;42.710;23.378;2023-10-08T04:17:53;3.10;;;2.53;;
20076;SDS011;12348;42.710;23.378;2023-10-08T04:20:21;2.70;;;1.87;;
20076;SDS011;12348;42.710;23.378;2023-10-08T04:23:06;2.50;;;2.30;;
20076;SDS011;12348;42.710;23.378;2023-10-08T04:25:39;4.77;;;2.10;;
20076;SDS011;12348;42.710;23.378;2023-10-08T04:28:07;2.37;;;2.17;;
20076;SDS011;12348;42.710;23.378;2023-10-08T04:30:38;2.87;;;2.57;;
20076;SDS011;12348;42.710;23.378;2023-10-08T04:33:07;5.70;;;2.00;;
20076;SDS011;12348;42.710;23.378;2023-10-08T04:35:37;3.07;;;2.77;;
20076;SDS011;12348;42.710;23.378;2023-10-08T04:38:14;6.40;;;2.10;;
20076;SDS011;12348;42.710;23.378;2023-10-08T04:40:43;3.87;;;2.10;;
20076;SDS011;12348;42.710;23.378;2023-10-08T04:43:14;4.23;;;2.17;;
20076;SDS011;12348;42.710;23.378;2023-10-08T04:45:47;3.50;;;2.80;;
20076;SDS011;12348;42.710;23.378;2023-10-08T04:48:15;3.97;;;2.43;;
20076;SDS011;12348;42.710;23.378;2023-10-08T04:50:45;14.77;;;3.17;;
20076;SDS011;12348;42.710;23.378;2023-10-08T04:53:24;5.27;;;3.67;;
20076;SDS011;12348;42.710;23.378;2023-10-08T04:55:57;3.47;;;3.13;;
20076;SDS011;12348;42.710;23.378;2023-10-08T04:58:30;5.00;;;3.93;;
20076;SDS011;12348;42.710;23.378;2023-10-08T05:01:01;4.43;;;2.03;;
20076;SDS011;12348;42.710;23.378;2023-10-08T05:03:56;2.90;;;2.07;;
20076;SDS011;12348;42.710;23.378;2023-10-08T05:06:51;5.87;;;2.30;;
20076;SDS011;12348;42.710;23.378;2023-10-08T05:09:42;5.20;;;3.07;;
20076;SDS011;12348;42.710;23.378;2023-10-08T05:12:17;5.73;;;3.20;;
20076;SDS011;12348;42.710;23.378;2023-10-08T05:15:03;6.63;;;2.60;;
20076;SDS011;12348;42.710;23.378;2023-10-08T05:17:58;3.47;;;2.70;;
20076;SDS011;12348;42.710;23.378;2023-10-08T05:20:40;4.10;;;2.30;;
20076;SDS011;12348;42.710;23.378;2023-10-08T05:23:24;3.67;;;2.43;;
20076;SDS011;12348;42.710;23.378;2023-10-08T05:26:34;3.87;;;2.63;;
20076;SDS011;12348;42.710;23.378;2023-10-08T05:29:07;4.40;;;3.17;;
20076;SDS011;12348;42.710;23.378;2023-10-08T05:31:48;4.97;;;2.90;;
20076;SDS011;12348;42.710;23.378;2023-10-08T05:34:35;6.67;;;3.00;;
20076;SDS011;12348;42.710;23.378;2023-10-08T05:37:09;4.50;;;2.40;;
20076;SDS011;12348;42.710;23.378;2023-10-08T05:39:58;8.17;;;3.30;;
20076;SDS011;12348;42.710;23.378;2023-10-08T05:42:37;3.93;;;2.97;;
20076;SDS011;12348;42.710;23.378;2023-10-08T05:45:11;7.57;;;2.60;;
20076;SDS011;12348;42.710;23.378;2023-10-08T05:47:39;7.30;;;3.07;;
20076;SDS011;12348;42.710;23.378;2023-10-08T05:50:16;4.73;;;3.33;;
20076;SDS011;12348;42.710;23.378;2023-10-08T05:53:01;12.53;;;4.13;;
20076;SDS011;12348;42.710;23.378;2023-10-08T05:55:40;3.03;;;2.73;;
20076;SDS011;12348;42.710;23.378;2023-10-08T05:58:12;7.63;;;4.00;;
20076;SDS011;12348;42.710;23.378;2023-10-08T06:00:49;5.00;;;3.40;;
20076;SDS011;12348;42.710;23.378;2023-10-08T06:03:34;7.20;;;3.53;;
20076;SDS011;12348;42.710;23.378;2023-10-08T06:06:14;9.27;;;4.43;;
20076;SDS011;12348;42.710;23.378;2023-10-08T06:09:02;4.37;;;2.77;;
20076;SDS011;12348;42.710;23.378;2023-10-08T06:12:00;6.63;;;3.37;;
20076;SDS011;12348;42.710;23.378;2023-10-08T06:14:35;5.30;;;2.47;;
20076;SDS011;12348;42.710;23.378;2023-10-08T06:17:18;6.97;;;3.40;;
20076;SDS011;12348;42.710;23.378;2023-10-08T06:20:00;6.40;;;3.10;;
20076;SDS011;12348;42.710;23.378;2023-10-08T06:22:35;5.30;;;2.93;;
20076;SDS011;12348;42.710;23.378;2023-10-08T06:25:02;4.50;;;2.70;;
20076;SDS011;12348;42.710;23.378;2023-10-08T06:27:44;4.87;;;2.67;;
20076;SDS011;12348;42.710;23.378;2023-10-08T06:30:11;4.07;;;2.43;;
20076;SDS011;12348;42.710;23.378;2023-10-08T06:32:42;4.60;;;2.53;;
20076;SDS011;12348;42.710;23.378;2023-10-08T06:35:10;6.20;;;2.07;;
20076;SDS011;12348;42.710;23.378;2023-10-08T06:37:43;4.60;;;2.23;;
20076;SDS011;12348;42.710;23.378;2023-10-08T06:40:11;4.20;;;2.03;;
20076;SDS011;12348;42.710;23.378;2023-10-08T06:43:00;4.10;;;2.20;;
20076;SDS011;12348;42.710;23.378;2023-10-08T06:45:36;9.63;;;2.47;;
20076;SDS011;12348;42.710;23.378;2023-10-08T06:48:05;8.47;;;2.30;;
20076;SDS011;12348;42.710;23.378;2023-10-08T06:50:33;3.87;;;2.30;;
20076;SDS011;12348;42.710;23.378;2023-10-08T06:53:01;3.93;;;2.23;;
20076;SDS011;12348;42.710;23.378;2023-10-08T06:55:32;6.93;;;3.07;;
20076;SDS011;12348;42.710;23.378;2023-10-08T06:58:02;4.53;;;2.40;;
20076;SDS011;12348;42.710;23.378;2023-10-08T07:00:33;4.97;;;2.27;;
20076;SDS011;12348;42.710;23.378;2023-10-08T07:03:12;7.60;;;3.00;;
20076;SDS011;12348;42.710;23.378;2023-10-08T07:05:41;6.17;;;2.50;;
20076;SDS011;12348;42.710;23.378;2023-10-08T07:08:10;6.13;;;3.03;;
20076;SDS011;12348;42.710;23.378;2023-10-08T07:10:39;4.23;;;2.70;;
20076;SDS011;12348;42.710;23.378;2023-10-08T07:13:09;6.27;;;3.43;;
20076;SDS011;12348;42.710;23.378;2023-10-08T07:15:35;5.50;;;2.93;;
20076;SDS011;12348;42.710;23.378;2023-10-08T07:18:05;5.13;;;2.50;;
20076;SDS011;12348;42.710;23.378;2023-10-08T07:20:38;4.77;;;2.87;;
20076;SDS011;12348;42.710;23.378;2023-10-08T07:23:07;3.67;;;1.87;;
20076;SDS011;12348;42.710;23.378;2023-10-08T07:25:51;3.60;;;2.27;;
20076;SDS011;12348;42.710;23.378;2023-10-08T07:28:23;5.43;;;2.80;;
20076;SDS011;12348;42.710;23.378;2023-10-08T07:30:51;4.70;;;2.63;;
20076;SDS011;12348;42.710;23.378;2023-10-08T07:33:20;9.20;;;2.70;;
20076;SDS011;12348;42.710;23.378;2023-10-08T07:35:50;4.50;;;2.60;;
20076;SDS011;12348;42.710;23.378;2023-10-08T07:38:22;4.67;;;3.03;;
20076;SDS011;12348;42.710;23.378;2023-10-08T07:40:49;3.20;;;2.17;;
20076;SDS011;12348;42.710;23.378;2023-10-08T07:43:18;5.60;;;2.73;;
20076;SDS011;12348;42.710;23.378;2023-10-08T07:45:47;2.70;;;1.80;;
20076;SDS011;12348;42.710;23.378;2023-10-08T07:48:13;4.70;;;2.90;;
20076;SDS011;12348;42.710;23.378;2023-10-08T07:50:41;10.93;;;5.83;;
20076;SDS011;12348;42.710;23.378;2023-10-08T07:53:09;5.33;;;2.80;;
20076;SDS011;12348;42.710;23.378;2023-10-08T07:55:43;5.23;;;2.73;;
20076;SDS011;12348;42.710;23.378;2023-10-08T07:58:11;4.63;;;2.87;;
20076;SDS011;12348;42.710;23.378;2023-10-08T08:00:39;3.23;;;2.33;;
20076;SDS011;12348;42.710;23.378;2023-10-08T08:03:08;5.37;;;2.30;;
20076;SDS011;12348;42.710;23.378;2023-10-08T08:05:36;3.03;;;1.90;;
20076;SDS011;12348;42.710;23.378;2023-10-08T08:08:05;4.87;;;1.87;;
20076;SDS011;12348;42.710;23.378;2023-10-08T08:10:32;3.00;;;2.00;;
20076;SDS011;12348;42.710;23.378;2023-10-08T08:13:02;4.43;;;2.90;;
20076;SDS011;12348;42.710;23.378;2023-10-08T08:15:31;4.80;;;2.60;;
20076;SDS011;12348;42.710;23.378;2023-10-08T08:17:58;9.27;;;3.73;;
20076;SDS011;12348;42.710;23.378;2023-10-08T08:20:26;3.00;;;2.37;;
20076;SDS011;12348;42.710;23.378;2023-10-08T08:23:04;3.37;;;2.10;;
20076;SDS011;12348;42.710;23.378;2023-10-08T08:25:36;4.30;;;2.57;;
20076;SDS011;12348;42.710;23.378;2023-10-08T08:28:10;4.13;;;2.17;;
20076;SDS011;12348;42.710;23.378;2023-10-08T08:30:42;3.80;;;1.93;;
20076;SDS011;12348;42.710;23.378;2023-10-08T08:33:12;4.70;;;2.40;;
20076;SDS011;12348;42.710;23.378;2023-10-08T08:35:43;3.70;;;2.47;;
20076;SDS011;12348;42.710;23.378;2023-10-08T08:38:11;13.27;;;2.30;;
20076;SDS011;12348;42.710;23.378;2023-10-08T08:40:38;2.07;;;1.60;;
20076;SDS011;12348;42.710;23.378;2023-10-08T08:43:05;2.97;;;2.17;;
20076;SDS011;12348;42.710;23.378;2023-10-08T08:45:32;4.18;;;2.22;;
20076;SDS011;12348;42.710;23.378;2023-10-08T08:48:05;8.68;;;3.45;;
20076;SDS011;12348;42.710;23.378;2023-10-08T08:50:33;3.58;;;2.08;;
20076;SDS011;12348;42.710;23.378;2023-10-08T08:53:02;4.25;;;1.80;;
20076;SDS011;12348;42.710;23.378;2023-10-08T08:55:29;2.97;;;1.98;;
20076;SDS011;12348;42.710;23.378;2023-10-08T08:58:01;3.80;;;1.40;;
20076;SDS011;12348;42.710;23.378;2023-10-08T09:00:30;2.10;;;1.67;;
20076;SDS011;12348;42.710;23.378;2023-10-08T09:02:57;5.23;;;2.03;;
20076;SDS011;12348;42.710;23.378;2023-10-08T09:05:24;2.47;;;1.00;;
20076;SDS011;12348;42.710;23.378;2023-10-08T09:07:52;3.90;;;1.40;;
20076;SDS011;12348;42.710;23.378;2023-10-08T09:10:23;3.93;;;2.00;;
20076;SDS011;12348;42.710;23.378;2023-10-08T09:12:53;3.27;;;1.27;;
20076;SDS011;12348;42.710;23.378;2023-10-08T09:15:22;3.80;;;1.23;;
20076;SDS011;12348;42.710;23.378;2023-10-08T09:17:51;4.63;;;1.50;;
20076;SDS011;12348;42.710;23.378;2023-10-08T09:20:18;2.93;;;1.20;;
20076;SDS011;12348;42.710;23.378;2023-10-08T09:22:46;2.13;;;1.27;;
20076;SDS011;12348;42.710;23.378;2023-10-08T09:25:34;2.80;;;1.40;;
20076;SDS011;12348;42.710;23.378;2023-10-08T09:28:01;3.57;;;1.97;;
20076;SDS011;12348;42.710;23.378;2023-10-08T09:30:32;3.90;;;1.30;;
20076;SDS011;12348;42.710;23.378;2023-10-08T09:33:03;2.70;;;1.50;;
20076;SDS011;12348;42.710;23.378;2023-10-08T09:35:31;1.40;;;1.07;;
20076;SDS011;12348;42.710;23.378;2023-10-08T09:37:58;1.90;;;1.63;;
20076;SDS011;12348;42.710;23.378;2023-10-08T09:40:26;3.40;;;1.63;;
20076;SDS011;12348;42.710;23.378;2023-10-08T09:42:55;3.10;;;1.50;;
20076;SDS011;12348;42.710;23.378;2023-10-08T09:45:22;2.87;;;1.37;;
20076;SDS011;12348;42.710;23.378;2023-10-08T09:47:49;3.65;;;1.55;;
20076;SDS011;12348;42.710;23.378;2023-10-08T09:50:20;4.68;;;2.03;;
20076;SDS011;12348;42.710;23.378;2023-10-08T09:52:56;3.03;;;1.65;;
20076;SDS011;12348;42.710;23.378;2023-10-08T09:55:29;3.17;;;1.33;;
20076;SDS011;12348;42.710;23.378;2023-10-08T09:57:57;2.30;;;1.08;;
20076;SDS011;12348;42.710;23.378;2023-10-08T10:00:24;2.80;;;1.50;;
20076;SDS011;12348;42.710;23.378;2023-10-08T10:02:57;2.50;;;1.50;;
20076;SDS011;12348;42.710;23.378;2023-10-08T10:05:28;2.85;;;1.67;;
20076;SDS011;12348;42.710;23.378;2023-10-08T10:07:56;1.97;;;0.97;;
20076;SDS011;12348;42.710;23.378;2023-10-08T10:10:26;4.03;;;1.40;;
20076;SDS011;12348;42.710;23.378;2023-10-08T10:13:00;1.77;;;1.10;;
20076;SDS011;12348;42.710;23.378;2023-10-08T10:15:31;3.47;;;1.67;;
20076;SDS011;12348;42.710;23.378;2023-10-08T10:18:07;2.40;;;1.23;;
20076;SDS011;12348;42.710;23.378;2023-10-08T10:20:38;2.17;;;1.33;;
20076;SDS011;12348;42.710;23.378;2023-10-08T10:26:05;4.63;;;2.57;;
20076;SDS011;12348;42.710;23.378;2023-10-08T10:31:51;4.33;;;1.80;;
20076;SDS011;12348;42.710;23.378;2023-10-08T10:34:22;3.30;;;1.80;;
20076;SDS011;12348;42.710;23.378;2023-10-08T10:36:53;3.10;;;1.50;;
20076;SDS011;12348;42.710;23.378;2023-10-08T10:39:24;2.03;;;1.37;;
20076;SDS011;12348;42.710;23.378;2023-10-08T10:41:56;3.47;;;1.43;;
20076;SDS011;12348;42.710;23.378;2023-10-08T10:44:28;0.90;;;0.87;;
20076;SDS011;12348;42.710;23.378;2023-10-08T10:46:56;2.03;;;1.37;;
20076;SDS011;12348;42.710;23.378;2023-10-08T10:49:41;1.70;;;1.47;;
20076;SDS011;12348;42.710;23.378;2023-10-08T10:52:17;3.73;;;1.47;;
20076;SDS011;12348;42.710;23.378;2023-10-08T10:54:57;3.47;;;1.60;;
20076;SDS011;12348;42.710;23.378;2023-10-08T10:57:43;3.00;;;1.47;;
20076;SDS011;12348;42.710;23.378;2023-10-08T11:00:20;2.03;;;1.33;;
20076;SDS011;12348;42.710;23.378;2023-10-08T11:03:02;3.30;;;1.30;;
20076;SDS011;12348;42.710;23.378;2023-10-08T11:05:41;2.77;;;1.50;;
20076;SDS011;12348;42.710;23.378;2023-10-08T11:08:13;5.03;;;1.03;;
20076;SDS011;12348;42.710;23.378;2023-10-08T11:10:43;3.13;;;1.17;;
20076;SDS011;12348;42.710;23.378;2023-10-08T11:13:13;5.30;;;1.93;;
20076;SDS011;12348;42.710;23.378;2023-10-08T11:15:43;3.00;;;1.70;;
20076;SDS011;12348;42.710;23.378;2023-10-08T11:18:15;5.97;;;1.47;;
20076;SDS011;12348;42.710;23.378;2023-10-08T11:20:42;5.67;;;2.60;;
20076;SDS011;12348;42.710;23.378;2023-10-08T11:23:10;2.60;;;1.40;;
20076;SDS011;12348;42.710;23.378;2023-10-08T11:25:53;1.90;;;1.10;;
20076;SDS011;12348;42.710;23.378;2023-10-08T11:28:20;3.17;;;1.50;;
20076;SDS011;12348;42.710;23.378;2023-10-08T11:30:54;3.17;;;1.60;;
20076;SDS011;12348;42.710;23.378;2023-10-08T11:33:24;2.20;;;1.50;;
20076;SDS011;12348;42.710;23.378;2023-10-08T11:35:58;1.70;;;1.07;;
20076;SDS011;12348;42.710;23.378;2023-10-08T11:38:28;2.67;;;1.37;;
20076;SDS011;12348;42.710;23.378;2023-10-08T11:41:09;2.40;;;1.40;;
20076;SDS011;12348;42.710;23.378;2023-10-08T11:43:45;2.30;;;1.07;;
20076;SDS011;12348;42.710;23.378;2023-10-08T11:46:20;3.07;;;1.37;;
20076;SDS011;12348;42.710;23.378;2023-10-08T11:48:50;1.57;;;1.10;;
20076;SDS011;12348;42.710;23.378;2023-10-08T11:51:17;4.40;;;2.00;;
20076;SDS011;12348;42.710;23.378;2023-10-08T11:53:49;2.90;;;1.00;;
20076;SDS011;12348;42.710;23.378;2023-10-08T11:56:16;2.00;;;1.30;;
20076;SDS011;12348;42.710;23.378;2023-10-08T11:58:47;3.10;;;1.37;;
20076;SDS011;12348;42.710;23.378;2023-10-08T12:01:14;3.00;;;1.17;;
20076;SDS011;12348;42.710;23.378;2023-10-08T12:03:44;6.13;;;1.63;;
20076;SDS011;12348;42.710;23.378;2023-10-08T12:06:11;2.93;;;1.77;;
20076;SDS011;12348;42.710;23.378;2023-10-08T12:08:41;4.40;;;1.70;;
20076;SDS011;12348;42.710;23.378;2023-10-08T12:11:11;4.73;;;2.27;;
20076;SDS011;12348;42.710;23.378;2023-10-08T12:13:41;2.17;;;1.27;;
20076;SDS011;12348;42.710;23.378;2023-10-08T12:16:12;2.60;;;1.40;;
20076;SDS011;12348;42.710;23.378;2023-10-08T12:18:45;2.47;;;1.40;;
20076;SDS011;12348;42.710;23.378;2023-10-08T12:21:18;2.57;;;1.20;;
20076;SDS011;12348;42.710;23.378;2023-10-08T12:23:45;4.50;;;1.90;;
20076;SDS011;12348;42.710;23.378;2023-10-08T12:26:12;1.67;;;1.30;;
20076;SDS011;12348;42.710;23.378;2023-10-08T12:28:43;3.17;;;1.60;;
20076;SDS011;12348;42.710;23.378;2023-10-08T12:31:11;3.53;;;1.30;;
20076;SDS011;12348;42.710;23.378;2023-10-08T12:33:40;4.67;;;1.50;;
20076;SDS011;12348;42.710;23.378;2023-10-08T12:36:10;3.43;;;1.17;;
20076;SDS011;12348;42.710;23.378;2023-10-08T12:38:37;2.53;;;0.90;;
20076;SDS011;12348;42.710;23.378;2023-10-08T12:41:06;3.23;;;1.60;;
20076;SDS011;12348;42.710;23.378;2023-10-08T12:43:38;1.73;;;1.20;;
20076;SDS011;12348;42.710;23.378;2023-10-08T12:46:07;2.30;;;0.80;;
20076;SDS011;12348;42.710;23.378;2023-10-08T12:48:41;3.73;;;1.33;;
20076;SDS011;12348;42.710;23.378;2023-10-08T12:51:10;2.47;;;0.90;;
20076;SDS011;12348;42.710;23.378;2023-10-08T12:53:37;3.53;;;1.57;;
20076;SDS011;12348;42.710;23.378;2023-10-08T12:56:04;3.00;;;1.57;;
20076;SDS011;12348;42.710;23.378;2023-10-08T12:58:32;1.37;;;1.23;;
20076;SDS011;12348;42.710;23.378;2023-10-08T13:01:06;3.77;;;1.20;;
20076;SDS011;12348;42.710;23.378;2023-10-08T13:03:34;4.37;;;1.67;;
20076;SDS011;12348;42.710;23.378;2023-10-08T13:06:06;2.87;;;1.00;;
20076;SDS011;12348;42.710;23.378;2023-10-08T13:08:37;6.43;;;1.00;;
20076;SDS011;12348;42.710;23.378;2023-10-08T13:11:05;3.10;;;1.70;;
20076;SDS011;12348;42.710;23.378;2023-10-08T13:13:31;2.03;;;1.50;;
20076;SDS011;12348;42.710;23.378;2023-10-08T13:15:59;2.97;;;1.23;;
20076;SDS011;12348;42.710;23.378;2023-10-08T13:18:29;4.27;;;1.27;;
20076;SDS011;12348;42.710;23.378;2023-10-08T13:20:58;3.30;;;1.23;;
20076;SDS011;12348;42.710;23.378;2023-10-08T13:23:25;1.93;;;1.07;;
20076;SDS011;12348;42.710;23.378;2023-10-08T13:25:54;5.70;;;1.73;;
20076;SDS011;12348;42.710;23.378;2023-10-08T13:28:21;2.90;;;0.80;;
20076;SDS011;12348;42.710;23.378;2023-10-08T13:30:49;3.03;;;1.57;;
20076;SDS011;12348;42.710;23.378;2023-10-08T13:33:19;11.37;;;1.60;;
20076;SDS011;12348;42.710;23.378;2023-10-08T13:35:47;3.53;;;0.83;;
20076;SDS011;12348;42.710;23.378;2023-10-08T13:38:15;2.13;;;0.90;;
20076;SDS011;12348;42.710;23.378;2023-10-08T13:40:45;1.13;;;0.97;;
20076;SDS011;12348;42.710;23.378;2023-10-08T13:43:29;6.83;;;1.80;;
20076;SDS011;12348;42.710;23.378;2023-10-08T13:46:03;3.67;;;1.43;;
20076;SDS011;12348;42.710;23.378;2023-10-08T13:48:31;3.67;;;1.83;;
20076;SDS011;12348;42.710;23.378;2023-10-08T13:50:59;1.60;;;1.00;;
20076;SDS011;12348;42.710;23.378;2023-10-08T13:53:28;4.07;;;1.67;;
20076;SDS011;12348;42.710;23.378;2023-10-08T13:55:56;4.80;;;1.10;;
20076;SDS011;12348;42.710;23.378;2023-10-08T13:58:25;3.97;;;1.10;;
20076;SDS011;12348;42.710;23.378;2023-10-08T14:00:55;4.33;;;1.07;;
20076;SDS011;12348;42.710;23.378;2023-10-08T14:03:22;2.30;;;0.90;;
20076;SDS011;12348;42.710;23.378;2023-10-08T14:05:49;0.80;;;0.60;;
20076;SDS011;12348;42.710;23.378;2023-10-08T14:08:17;5.23;;;1.13;;
20076;SDS011;12348;42.710;23.378;2023-10-08T14:10:44;1.17;;;0.90;;
20076;SDS011;12348;42.710;23.378;2023-10-08T14:13:13;6.53;;;1.60;;
20076;SDS011;12348;42.710;23.378;2023-10-08T14:15:45;0.97;;;0.70;;
20076;SDS011;12348;42.710;23.378;2023-10-08T14:18:16;4.10;;;1.47;;
20076;SDS011;12348;42.710;23.378;2023-10-08T14:20:50;2.67;;;1.00;;
20076;SDS011;12348;42.710;23.378;2023-10-08T14:23:19;1.50;;;1.23;;
20076;SDS011;12348;42.710;23.378;2023-10-08T14:25:47;3.47;;;1.43;;
20076;SDS011;12348;42.710;23.378;2023-10-08T14:28:17;3.20;;;1.20;;
20076;SDS011;12348;42.710;23.378;2023-10-08T14:31:05;3.43;;;1.60;;
20076;SDS011;12348;42.710;23.378;2023-10-08T14:33:34;4.63;;;1.23;;
20076;SDS011;12348;42.710;23.378;2023-10-08T14:36:07;4.57;;;2.00;;
20076;SDS011;12348;42.710;23.378;2023-10-08T14:38:57;1.73;;;1.23;;
20076;SDS011;12348;42.710;23.378;2023-10-08T14:41:41;4.40;;;1.40;;
20076;SDS011;12348;42.710;23.378;2023-10-08T14:44:25;3.83;;;1.57;;
20076;SDS011;12348;42.710;23.378;2023-10-08T14:46:52;3.00;;;0.73;;
20076;SDS011;12348;42.710;23.378;2023-10-08T14:49:22;2.30;;;1.53;;
20076;SDS011;12348;42.710;23.378;2023-10-08T14:51:49;2.17;;;1.37;;
20076;SDS011;12348;42.710;23.378;2023-10-08T14:54:18;3.23;;;1.17;;
20076;SDS011;12348;42.710;23.378;2023-10-08T14:56:45;2.20;;;0.93;;
20076;SDS011;12348;42.710;23.378;2023-10-08T14:59:12;2.23;;;1.10;;
20076;SDS011;12348;42.710;23.378;2023-10-08T15:01:40;1.67;;;1.23;;
20076;SDS011;12348;42.710;23.378;2023-10-08T15:04:07;3.10;;;1.03;;
20076;SDS011;12348;42.710;23.378;2023-10-08T15:06:37;4.93;;;2.47;;
20076;SDS011;12348;42.710;23.378;2023-10-08T15:09:05;0.70;;;0.70;;